createdAt,value
2022-12-25T00:20:05.356Z,100751.03
2022-12-25T00:22:32.206Z,100758.72
2022-12-25T00:24:58.915Z,100768.56
2022-12-25T00:27:25.546Z,100768.31
2022-12-25T00:29:52.358Z,100768.31
2022-12-25T00:32:19.016Z,100760.28
2022-12-25T00:34:48.043Z,100750.44
2022-12-25T00:37:14.749Z,100758.47
2022-12-25T00:39:42.462Z,100756.88
2022-12-25T00:42:20.212Z,100757.25
2022-12-25T00:44:50.989Z,100764.53
2022-12-25T00:47:20.706Z,100765.38
2022-12-25T00:49:47.737Z,100756.88
2022-12-25T00:52:17.488Z,100757.22
2022-12-25T00:54:49.500Z,100758.31
2022-12-25T00:57:16.119Z,100770.84
2022-12-25T00:59:42.855Z,100771.06
2022-12-25T01:02:25.271Z,100766.91
2022-12-25T01:04:56.466Z,100785.91
2022-12-25T01:07:26.569Z,100783.22
2022-12-25T01:10:12.253Z,100788.47
2022-12-25T01:12:43.344Z,100782.38
2022-12-25T01:15:12.898Z,100770.47
2022-12-25T01:17:39.868Z,100780.56
2022-12-25T01:20:07.991Z,100784.09
2022-12-25T01:22:34.972Z,100791.66
2022-12-25T01:25:01.925Z,100786.31
2022-12-25T01:27:28.739Z,100794.09
2022-12-25T01:29:55.772Z,100786.31
2022-12-25T01:32:22.535Z,100790.56
2022-12-25T01:34:55.518Z,100786.06
2022-12-25T01:37:24.979Z,100796.19
2022-12-25T01:39:52.204Z,100794.59
2022-12-25T01:42:23.778Z,100801.75
2022-12-25T01:45:13.638Z,100798.25
2022-12-25T01:47:40.478Z,100799.59
2022-12-25T01:50:08.454Z,100787.06
2022-12-25T01:52:35.688Z,100785.13
2022-12-25T01:55:05.247Z,100789.50
2022-12-25T01:57:44.599Z,100796.78
2022-12-25T02:00:16.323Z,100787.31
2022-12-25T02:02:45.346Z,100790.47
2022-12-25T02:05:27.086Z,100794.59
2022-12-25T02:07:57.971Z,100794.94
2022-12-25T02:10:24.628Z,100791.34
2022-12-25T02:12:52.537Z,100800.81
2022-12-25T02:15:34.771Z,100815.94
2022-12-25T02:18:27.132Z,100797.81
2022-12-25T02:21:50.829Z,100800.47
2022-12-25T02:24:53.413Z,100800.28
2022-12-25T02:27:54.849Z,100814.16
2022-12-25T02:30:22.236Z,100822.78
2022-12-25T02:33:51.015Z,100824.50
2022-12-25T02:36:30.858Z,100820.47
2022-12-25T02:39:23.389Z,100820.59
2022-12-25T02:41:56.810Z,100820.47
2022-12-25T02:44:49.816Z,100828.00
2022-12-25T02:47:38.268Z,100819.34
2022-12-25T02:50:28.267Z,100825.53
2022-12-25T02:53:18.332Z,100828.78
2022-12-25T02:56:12.515Z,100840.13
2022-12-25T02:59:03.530Z,100842.53
2022-12-25T03:02:00.520Z,100848.44
2022-12-25T03:04:53.717Z,100844.75
2022-12-25T03:07:26.165Z,100851.34
2022-12-25T03:10:28.335Z,100853.81
2022-12-25T03:13:16.154Z,100853.81
2022-12-25T03:16:01.907Z,100849.16
2022-12-25T03:18:35.649Z,100852.34
2022-12-25T03:21:21.556Z,100852.22
2022-12-25T03:24:20.398Z,100861.38
2022-12-25T03:26:57.066Z,100848.00
2022-12-25T03:29:55.582Z,100850.09
2022-12-25T03:33:36.686Z,100841.81
2022-12-25T03:36:31.553Z,100840.00
2022-12-25T03:39:40.580Z,100839.16
2022-12-25T03:42:29.538Z,100822.34
2022-12-25T03:45:34.095Z,100825.03
2022-12-25T03:48:24.250Z,100825.88
2022-12-25T03:51:30.659Z,100822.13
2022-12-25T03:54:25.686Z,100810.69
2022-12-25T03:57:11.071Z,100823.81
2022-12-25T03:59:56.518Z,100830.03
2022-12-25T04:02:42.020Z,100817.72
2022-12-25T04:05:27.849Z,100810.78
2022-12-25T04:08:13.136Z,100800.19
2022-12-25T04:10:58.518Z,100799.59
2022-12-25T04:13:44.078Z,100807.84
2022-12-25T04:16:31.125Z,100805.66
2022-12-25T04:19:16.447Z,100811.97
2022-12-25T04:22:01.868Z,100807.59
2022-12-25T04:24:47.344Z,100800.69
2022-12-25T04:27:34.530Z,100806.03
2022-12-25T04:30:19.874Z,100792.66
2022-12-25T04:33:08.736Z,100809.91
2022-12-25T04:35:54.136Z,100788.97
2022-12-25T04:38:20.908Z,100783.13
2022-12-25T04:40:47.813Z,100785.44
2022-12-25T04:43:14.512Z,100798.81
2022-12-25T04:45:41.287Z,100789.31
2022-12-25T04:48:07.977Z,100775.19
2022-12-25T04:50:34.686Z,100786.63
2022-12-25T04:53:01.389Z,100773.63
2022-12-25T04:55:27.978Z,100775.94
2022-12-25T04:57:54.717Z,100785.78
2022-12-25T05:00:21.401Z,100786.38
2022-12-25T05:02:48.134Z,100782.03
2022-12-25T05:05:14.999Z,100776.69
2022-12-25T05:07:41.714Z,100766.72
2022-12-25T05:10:09.276Z,100775.94
2022-12-25T05:12:35.938Z,100768.66
2022-12-25T05:15:05.842Z,100772.91
2022-12-25T05:17:32.656Z,100769.38
2022-12-25T05:19:59.446Z,100767.31
2022-12-25T05:22:26.350Z,100761.09
2022-12-25T05:24:53.075Z,100764.78
2022-12-25T05:27:19.819Z,100764.03
2022-12-25T05:29:49.651Z,100761.09
2022-12-25T05:32:16.474Z,100756.75
2022-12-25T05:34:43.246Z,100755.75
2022-12-25T05:37:09.945Z,100754.81
2022-12-25T05:39:39.776Z,100746.88
2022-12-25T05:42:15.229Z,100744.22
2022-12-25T05:44:42.009Z,100740.53
2022-12-25T05:47:08.778Z,100745.78
2022-12-25T05:49:35.549Z,100733.75
2022-12-25T05:52:02.174Z,100730.81
2022-12-25T05:54:28.920Z,100729.00
2022-12-25T05:56:55.552Z,100723.06
2022-12-25T05:59:22.308Z,100736.66
2022-12-25T06:01:49.132Z,100737.13
2022-12-25T06:04:16.111Z,100744.19
2022-12-25T06:06:42.832Z,100743.19
2022-12-25T06:09:13.448Z,100743.94
2022-12-25T06:11:41.367Z,100732.38
2022-12-25T06:14:14.474Z,100723.75
2022-12-25T06:16:44.375Z,100730.31
2022-12-25T06:19:11.077Z,100742.34
2022-12-25T06:21:39.736Z,100750.34
2022-12-25T06:24:07.086Z,100749.63
2022-12-25T06:26:37.015Z,100748.16
2022-12-25T06:29:06.799Z,100740.63
2022-12-25T06:31:34.000Z,100741.34
2022-12-25T06:34:00.837Z,100740.63
2022-12-25T06:36:29.454Z,100746.81
2022-12-25T06:38:56.915Z,100746.56
2022-12-25T06:41:27.903Z,100742.31
2022-12-25T06:44:04.890Z,100743.28
2022-12-25T06:46:33.482Z,100744.97
2022-12-25T06:49:03.507Z,100738.88
2022-12-25T06:51:34.535Z,100739.72
2022-12-25T06:54:07.620Z,100743.50
2022-12-25T06:56:35.175Z,100742.66
2022-12-25T06:59:08.657Z,100744.69
2022-12-25T07:01:50.086Z,100760.53
2022-12-25T07:04:40.712Z,100755.91
2022-12-25T07:28:47.107Z,100767.06
2022-12-25T08:03:32.006Z,100777.06
2022-12-25T08:27:29.139Z,100755.28
2022-12-25T08:32:36.736Z,100750.41
2022-12-25T08:35:03.568Z,100756.25
2022-12-25T08:37:31.551Z,100749.44
2022-12-25T08:39:58.260Z,100735.94
2022-12-25T08:42:25.017Z,100737.50
2022-12-25T08:44:51.723Z,100738.88
2022-12-25T08:47:18.462Z,100738.88
2022-12-25T08:49:45.177Z,100742.28
2022-12-25T08:52:12.232Z,100738.50
2022-12-25T08:54:39.010Z,100734.34
2022-12-25T08:57:05.702Z,100720.03
2022-12-25T08:59:39.782Z,100717.34
2022-12-25T09:02:15.991Z,100734.00
2022-12-25T09:04:51.207Z,100730.22
2022-12-25T09:07:18.141Z,100732.06
2022-12-25T09:09:54.416Z,100733.53
2022-12-25T09:12:42.232Z,100743.88
2022-12-25T09:15:11.031Z,100741.81
2022-12-25T09:17:37.869Z,100737.16
2022-12-25T09:20:08.086Z,100732.69
2022-12-25T09:22:38.034Z,100729.38
2022-12-25T09:25:05.488Z,100731.56
2022-12-25T09:27:33.408Z,100731.56
2022-12-25T09:30:00.027Z,100736.31
2022-12-25T09:32:26.807Z,100741.81
2022-12-25T09:34:53.407Z,100739.97
2022-12-25T09:37:20.083Z,100745.19
2022-12-25T09:39:49.538Z,100753.09
2022-12-25T09:42:37.101Z,100735.09
2022-12-25T09:45:19.872Z,100747.16
2022-12-25T09:47:52.907Z,100739.97
2022-12-25T09:50:47.373Z,100761.75
2022-12-25T09:53:30.565Z,100752.00
2022-12-25T09:56:18.258Z,100750.78
2022-12-25T09:58:53.026Z,100744.09
2022-12-25T10:02:00.441Z,100736.56
2022-12-25T10:05:12.815Z,100735.19
2022-12-25T10:08:31.262Z,100739.22
2022-12-25T10:11:55.640Z,100738.81
2022-12-25T10:15:04.517Z,100745.03
2022-12-25T10:18:14.086Z,100743.69
2022-12-25T10:20:56.076Z,100749.91
2022-12-25T10:24:07.681Z,100745.75
2022-12-25T10:26:35.495Z,100747.72
2022-12-25T10:29:15.983Z,100747.97
2022-12-25T10:31:50.742Z,100738.81
2022-12-25T10:34:21.012Z,100722.75
2022-12-25T10:36:49.958Z,100721.28
2022-12-25T10:39:25.068Z,100715.31
2022-12-25T10:42:43.838Z,100705.44
2022-12-25T10:45:10.972Z,100704.81
2022-12-25T10:47:44.471Z,100708.97
2022-12-25T10:50:26.795Z,100695.44
2022-12-25T10:53:05.392Z,100695.19
2022-12-25T10:55:33.847Z,100690.53
2022-12-25T10:58:02.095Z,100691.16
2022-12-25T11:00:32.705Z,100682.56
2022-12-25T11:03:00.819Z,100667.09
2022-12-25T11:05:34.514Z,100677.53
2022-12-25T11:08:03.564Z,100679.38
2022-12-25T11:10:44.165Z,100678.53
2022-12-25T11:13:30.879Z,100673.28
2022-12-25T11:16:14.393Z,100667.66
2022-12-25T11:18:55.245Z,100673.69
2022-12-25T11:21:36.936Z,100660.88
2022-12-25T11:24:22.416Z,100666.09
2022-12-25T11:26:53.491Z,100656.38
2022-12-25T11:29:51.309Z,100650.28
2022-12-25T11:32:41.689Z,100635.75
2022-12-25T11:35:19.116Z,100637.47
2022-12-25T11:37:52.706Z,100644.53
2022-12-25T11:40:42.846Z,100636.59
2022-12-25T11:43:48.210Z,100631.13
2022-12-25T11:46:31.712Z,100644.53
2022-12-25T11:49:14.526Z,100625.44
2022-12-25T11:51:49.159Z,100618.72
2022-12-25T11:54:44.158Z,100628.03
2022-12-25T11:57:12.738Z,100625.97
2022-12-25T12:00:00.773Z,100629.09
2022-12-25T12:03:13.526Z,100630.78
2022-12-25T12:05:59.985Z,100627.59
2022-12-25T12:08:28.369Z,100625.63
2022-12-25T12:11:36.464Z,100636.34
2022-12-25T12:14:33.891Z,100631.25
2022-12-25T12:17:07.107Z,100633.47
2022-12-25T12:28:05.675Z,100633.91
2022-12-25T12:47:42.990Z,100619.47
2022-12-25T12:50:41.192Z,100622.75
2022-12-25T12:53:35.825Z,100614.97
2022-12-25T12:56:12.795Z,100621.06
2022-12-25T12:58:50.814Z,100609.00
2022-12-25T13:02:04.247Z,100609.47
2022-12-25T13:05:10.284Z,100614.81
2022-12-25T13:11:08.548Z,100581.25
2022-12-25T13:28:17.205Z,100576.91
2022-12-25T13:30:50.502Z,100572.41
2022-12-25T13:36:09.322Z,100559.25
2022-12-25T13:42:07.323Z,100569.00
2022-12-25T13:55:59.692Z,100569.34
2022-12-25T14:51:50.280Z,100531.22
2022-12-25T14:54:25.757Z,100525.88
2022-12-25T15:02:19.627Z,100502.16
2022-12-25T15:35:06.855Z,100469.28
2022-12-25T15:40:19.605Z,100457.53
2022-12-25T15:42:50.332Z,100455.59
2022-12-25T16:09:49.440Z,100453.16
2022-12-25T16:23:03.055Z,100455.44
2022-12-25T16:25:29.733Z,100453.75
2022-12-25T16:27:56.375Z,100451.91
2022-12-25T16:30:23.090Z,100439.53
2022-12-25T16:32:50.751Z,100426.50
2022-12-25T16:35:17.898Z,100436.13
2022-12-25T16:37:45.084Z,100425.66
2022-12-25T16:40:12.032Z,100426.50
2022-12-25T16:42:41.120Z,100434.69
2022-12-25T16:45:08.551Z,100422.00
2022-12-25T16:47:35.244Z,100422.00
2022-12-25T16:50:03.762Z,100408.75
2022-12-25T16:52:32.911Z,100397.91
2022-12-25T16:54:59.695Z,100404.69
2022-12-25T16:57:28.009Z,100390.59
2022-12-25T16:59:55.154Z,100396.66
2022-12-25T17:02:24.461Z,100398.22
2022-12-25T17:04:56.689Z,100395.28
2022-12-25T17:07:25.307Z,100387.50
2022-12-25T17:09:57.829Z,100378.47
2022-12-25T17:12:27.135Z,100387.56
2022-12-25T17:14:53.994Z,100381.22
2022-12-25T17:17:20.680Z,100375.28
2022-12-25T17:19:47.626Z,100360.00
2022-12-25T17:22:14.321Z,100364.69
2022-12-25T17:24:41.522Z,100363.25
2022-12-25T17:27:09.351Z,100359.75
2022-12-25T17:29:39.999Z,100363.53
2022-12-25T17:32:11.469Z,100365.38
2022-12-25T17:34:38.721Z,100363.41
2022-12-25T17:37:05.926Z,100358.44
2022-12-25T17:39:32.981Z,100353.22
2022-12-25T17:41:59.703Z,100358.31
2022-12-25T17:44:27.292Z,100354.19
2022-12-25T17:46:57.157Z,100352.50
2022-12-25T17:49:24.047Z,100345.59
2022-12-25T17:51:51.075Z,100345.72
2022-12-25T17:54:17.849Z,100343.19
2022-12-25T17:56:44.633Z,100340.50
2022-12-25T17:59:18.265Z,100336.72
2022-12-25T18:01:48.059Z,100335.84
2022-12-25T18:04:16.070Z,100332.59
2022-12-25T18:06:42.711Z,100337.22
2022-12-25T18:09:11.511Z,100325.53
2022-12-25T18:11:49.452Z,100331.88
2022-12-25T18:14:17.697Z,100325.69
2022-12-25T18:16:47.571Z,100324.13
2022-12-25T18:19:17.644Z,100328.59
2022-12-25T18:21:44.500Z,100320.00
2022-12-25T18:24:11.552Z,100314.06
2022-12-25T18:26:38.454Z,100307.84
2022-12-25T18:29:08.306Z,100306.28
2022-12-25T18:31:36.573Z,100298.25
2022-12-25T18:34:03.541Z,100302.78
2022-12-25T18:36:30.816Z,100293.44
2022-12-25T18:39:01.376Z,100295.00
2022-12-25T18:41:28.895Z,100296.72
2022-12-25T18:43:59.249Z,100290.47
2022-12-25T18:46:29.199Z,100291.34
2022-12-25T18:48:57.639Z,100289.63
2022-12-25T18:51:27.719Z,100284.28
2022-12-25T18:54:05.006Z,100283.44
2022-12-25T18:56:32.118Z,100281.75
2022-12-25T18:59:01.949Z,100281.75
2022-12-25T19:01:29.023Z,100270.34
2022-12-25T19:04:04.458Z,100265.94
2022-12-25T19:06:33.465Z,100273.97
2022-12-25T19:09:00.360Z,100275.81
2022-12-25T19:11:27.067Z,100268.91
2022-12-25T19:13:53.832Z,100256.47
2022-12-25T19:16:20.613Z,100261.13
2022-12-25T19:18:47.936Z,100251.69
2022-12-25T19:21:16.011Z,100251.41
2022-12-25T19:23:42.824Z,100255.75
2022-12-25T19:26:14.361Z,100232.66
2022-12-25T19:28:41.484Z,100240.56
2022-12-25T19:31:10.413Z,100243.25
2022-12-25T19:33:43.014Z,100244.38
2022-12-25T19:36:15.991Z,100242.38
2022-12-25T19:38:44.301Z,100234.22
2022-12-25T19:41:18.869Z,100216.63
2022-12-25T19:43:49.309Z,100217.59
2022-12-25T19:46:28.544Z,100214.06
2022-12-25T19:48:56.953Z,100212.25
2022-12-25T19:51:31.380Z,100205.19
2022-12-25T19:53:58.230Z,100206.91
2022-12-25T19:56:28.817Z,100207.88
2022-12-25T19:58:59.804Z,100203.63
2022-12-25T20:09:36.886Z,100179.84
2022-12-25T20:12:09.075Z,100186.88
2022-12-25T20:36:10.094Z,100160.22
2022-12-25T20:38:37.124Z,100157.72
2022-12-25T20:41:32.428Z,100152.47
2022-12-25T20:57:37.781Z,100143.03
2022-12-25T21:00:10.783Z,100150.91
2022-12-25T21:02:37.956Z,100147.53
2022-12-25T21:05:07.884Z,100147.53
2022-12-25T21:18:36.161Z,100147.13
2022-12-25T21:21:15.754Z,100124.56
2022-12-25T21:23:43.178Z,100135.28
2022-12-25T21:37:35.910Z,100126.44
2022-12-25T21:45:24.569Z,100125.72
2022-12-25T21:56:13.795Z,100120.06
2022-12-25T21:58:40.483Z,100132.44
2022-12-25T22:01:07.319Z,100116.94
2022-12-25T22:03:40.076Z,100126.53
2022-12-25T22:06:25.684Z,100112.00
2022-12-25T22:08:53.724Z,100117.19
2022-12-25T22:11:39.214Z,100112.44
2022-12-25T22:14:51.875Z,100114.00
2022-12-25T22:17:31.807Z,100096.66
2022-12-25T22:19:59.339Z,100107.69
2022-12-25T22:22:31.113Z,100105.25
2022-12-25T22:25:02.636Z,100108.75
2022-12-25T22:27:37.992Z,100101.03
2022-12-25T22:30:10.016Z,100100.03
2022-12-25T22:32:37.279Z,100102.69
2022-12-25T22:35:05.032Z,100098.34
2022-12-25T22:37:34.871Z,100105.38
2022-12-25T22:40:06.475Z,100101.16
2022-12-25T22:42:36.140Z,100097.91
2022-12-25T22:45:04.691Z,100096.19
2022-12-25T22:47:31.684Z,100092.09
2022-12-25T22:49:58.485Z,100091.00
2022-12-25T22:52:29.159Z,100096.19
2022-12-25T22:54:56.152Z,100083.09
2022-12-25T22:57:23.104Z,100079.31
2022-12-25T22:59:53.183Z,100069.72
2022-12-25T23:02:23.052Z,100062.69
2022-12-25T23:04:50.179Z,100062.31
2022-12-25T23:07:17.149Z,100053.41
2022-12-25T23:09:46.863Z,100046.25
2022-12-25T23:12:33.672Z,100046.25
2022-12-25T23:15:03.541Z,100044.81
2022-12-25T23:17:48.562Z,100039.88
2022-12-25T23:20:34.062Z,100049.47
2022-12-25T23:23:22.862Z,100047.75
2022-12-25T23:26:07.745Z,100049.19
2022-12-25T23:29:00.911Z,100049.75
2022-12-25T23:31:37.061Z,100049.59
2022-12-25T23:34:06.466Z,100051.31
2022-12-25T23:36:39.668Z,100047.66
2022-12-25T23:39:10.158Z,100056.53
2022-12-25T23:41:43.612Z,100059.06
2022-12-25T23:44:13.170Z,100054.72
2022-12-25T23:46:53.209Z,100055.41
2022-12-25T23:49:23.511Z,100053.59
2022-12-25T23:51:55.097Z,100057.22
2022-12-25T23:54:34.276Z,100061.63
2022-12-25T23:57:03.270Z,100057.09
2022-12-25T23:59:38.369Z,100056.38
